Time;durP1;ratioP1;P1;durP2;ratioP2;P2;SDS_P1;SDS_P2;PMS_P1;PMS_P2;Temp;Humidity;BMP_temperature;BMP_pressure;BME280_temperature;BME280_humidity;BME280_pressure;Samples;Min_cycle;Max_cycle;Signal;HPM_P1;HPM_P2
2024/01/16 00:00:57;;;;;;;1.10;0.70;;;18.40;62.30;;;;;;5069544;28;20052;-29
2024/01/16 00:03:25;;;;;;;1.17;0.80;;;;;;;;;;5071937;28;20048;-36
2024/01/16 00:05:51;;;;;;;2.10;0.90;;;17.90;62.20;;;;;;5071998;28;20048;-37
2024/01/16 00:08:20;;;;;;;1.05;0.82;;;18.80;41.30;;;;;;5071421;28;20084;-33
2024/01/16 00:10:47;;;;;;;1.83;0.90;;;;;;;;;;5066382;28;20102;-33
2024/01/16 00:13:14;;;;;;;1.10;0.73;;;18.30;55.90;;;;;;5051769;28;20448;-37
2024/01/16 00:15:41;;;;;;;1.52;0.88;;;17.60;47.60;;;;;;5051924;28;20103;-36
2024/01/16 00:18:09;;;;;;;1.02;0.80;;;;;;;;;;5052079;28;20072;-29
2024/01/16 00:20:35;;;;;;;1.10;0.90;;;18.90;62.50;;;;;;5051828;28;20417;-28
2024/01/16 00:23:02;;;;;;;1.60;0.75;;;18.60;62.40;;;;;;5051910;28;20099;-28
2024/01/16 00:25:30;;;;;;;1.85;1.02;;;17.80;43.80;;;;;;5055432;28;20105;-30
2024/01/16 00:27:57;;;;;;;1.75;1.00;;;19.10;46.50;;;;;;5071814;28;20044;-30
2024/01/16 00:30:24;;;;;;;1.13;0.82;;;19.10;61.90;;;;;;5071655;28;20056;-38
2024/01/16 00:32:51;;;;;;;1.90;0.70;;;18.50;62.40;;;;;;5072075;28;20099;-35
2024/01/16 00:35:18;;;;;;;1.83;0.75;;;;;;;;;;5071281;28;20532;-35
2024/01/16 00:37:45;;;;;;;1.27;0.75;;;18.60;62.50;;;;;;5071255;28;20045;-37
2024/01/16 00:40:12;;;;;;;1.35;0.70;;;18.60;44.70;;;;;;5071695;28;20136;-33
2024/01/16 00:42:40;;;;;;;1.30;0.85;;;18.60;62.90;;;;;;5066800;28;20097;-35
2024/01/16 00:45:07;;;;;;;1.00;0.70;;;;;;;;;;5071614;28;20456;-34
2024/01/16 00:47:34;;;;;;;1.58;0.85;;;18.20;62.20;;;;;;5071123;28;20498;-34
2024/01/16 00:50:02;;;;;;;1.58;0.82;;;18.50;57.20;;;;;;5071619;28;20049;-33
2024/01/16 00:52:28;;;;;;;1.05;0.75;;;18.10;62.50;;;;;;5071371;28;20569;-35
2024/01/16 00:54:55;;;;;;;1.50;0.82;;;18.10;62.70;;;;;;5071657;28;20053;-34
2024/01/16 00:57:22;;;;;;;1.95;0.77;;;19.10;49.90;;;;;;5071116;28;20060;-34
2024/01/16 00:59:50;;;;;;;2.22;1.02;;;18.00;43.90;;;;;;5057589;28;20041;-28
2024/01/16 01:02:17;;;;;;;1.55;0.90;;;18.10;62.60;;;;;;5053397;28;20110;-28
2024/01/16 01:04:44;;;;;;;1.65;0.80;;;17.90;62.10;;;;;;5055318;28;20049;-35
2024/01/16 01:07:13;;;;;;;2.10;0.90;;;18.50;55.00;;;;;;5055493;28;20076;-33
2024/01/16 01:09:40;;;;;;;1.67;0.90;;;;;;;;;;5055542;28;20044;-34
2024/01/16 01:12:07;;;;;;;1.75;0.90;;;17.40;62.20;;;;;;5055574;28;20449;-28
2024/01/16 01:14:34;;;;;;;1.35;0.82;;;18.00;52.60;;;;;;5056082;28;20056;-28
2024/01/16 01:17:02;;;;;;;1.13;0.80;;;17.30;61.00;;;;;;5055399;28;20045;-29
2024/01/16 01:19:29;;;;;;;3.47;1.10;;;17.80;62.20;;;;;;5055244;28;20110;-36
2024/01/16 01:21:56;;;;;;;1.05;0.85;;;;;;;;;;5055378;28;20049;-34
2024/01/16 01:24:23;;;;;;;2.08;0.90;;;18.20;60.20;;;;;;5055008;28;20045;-36
2024/01/16 01:26:50;;;;;;;1.40;0.82;;;18.20;62.50;;;;;;5054948;28;20053;-36
2024/01/16 01:29:17;;;;;;;1.35;0.70;;;;;;;;;;5055024;28;20105;-32
2024/01/16 01:31:47;;;;;;;2.13;0.90;;;18.30;62.40;;;;;;5056300;28;20061;-35
2024/01/16 01:34:15;;;;;;;1.70;1.00;;;18.70;62.90;;;;;;5068673;28;20059;-27
2024/01/16 01:36:43;;;;;;;2.00;0.90;;;18.50;48.60;;;;;;5074058;28;20048;-27
2024/01/16 01:39:10;;;;;;;1.80;0.90;;;19.40;59.10;;;;;;5074807;28;20044;-38
2024/01/16 01:41:37;;;;;;;1.48;0.80;;;18.40;41.50;;;;;;5074816;28;20067;-31
2024/01/16 01:44:04;;;;;;;1.15;0.70;;;19.00;43.80;;;;;;5074692;28;20079;-29
2024/01/16 01:46:31;;;;;;;1.08;0.80;;;;;;;;;;5074507;28;20056;-33
2024/01/16 01:48:58;;;;;;;1.88;1.27;;;18.20;62.40;;;;;;5069665;28;20045;-29
2024/01/16 01:51:26;;;;;;;2.00;1.02;;;18.20;41.20;;;;;;5074696;28;20052;-28
2024/01/16 01:53:53;;;;;;;1.85;0.90;;;18.70;62.40;;;;;;5074472;28;20110;-38
2024/01/16 01:56:20;;;;;;;1.75;1.00;;;18.30;61.60;;;;;;5074168;28;20053;-38
2024/01/16 01:58:47;;;;;;;2.70;0.90;;;18.60;62.00;;;;;;5074553;28;20064;-36
2024/01/16 02:01:15;;;;;;;1.38;0.82;;;18.90;43.10;;;;;;5074631;28;20105;-36
2024/01/16 02:03:43;;;;;;;1.90;0.80;;;19.20;41.40;;;;;;5074439;28;20098;-33
2024/01/16 02:06:10;;;;;;;1.10;0.70;;;19.20;48.20;;;;;;5066859;28;20049;-31
2024/01/16 02:08:39;;;;;;;1.90;0.88;;;18.90;61.90;;;;;;5054413;28;20049;-29
2024/01/16 02:11:07;;;;;;;1.33;0.90;;;;;;;;;;5054088;28;20127;-34
2024/01/16 02:13:33;;;;;;;0.93;0.60;;;19.40;62.40;;;;;;5053959;28;20080;-39
2024/01/16 02:16:00;;;;;;;1.48;1.02;;;;;;;;;;5053941;28;20049;-32
2024/01/16 02:18:28;;;;;;;1.75;0.90;;;;;;;;;;5054094;28;20126;-28
2024/01/16 02:20:55;;;;;;;1.63;0.93;;;;;;;;;;5055090;28;20052;-31
2024/01/16 02:23:25;;;;;;;2.63;0.95;;;19.50;62.10;;;;;;5053900;28;20510;-29
2024/01/16 02:25:52;;;;;;;1.17;0.80;;;;;;;;;;5053877;28;20045;-28
2024/01/16 02:28:19;;;;;;;1.83;0.82;;;;;;;;;;5054001;28;20049;-32
2024/01/16 02:30:46;;;;;;;2.10;0.88;;;20.20;62.60;;;;;;5054155;28;20102;-34
2024/01/16 02:33:13;;;;;;;1.52;0.80;;;;;;;;;;5053925;28;20486;-33
2024/01/16 02:35:40;;;;;;;1.83;0.98;;;19.20;61.60;;;;;;5053471;28;20560;-37
2024/01/16 02:38:07;;;;;;;1.48;0.85;;;19.30;58.10;;;;;;5062925;28;20049;-36
2024/01/16 02:40:35;;;;;;;2.03;0.70;;;19.20;59.20;;;;;;5073578;28;20061;-38
2024/01/16 02:43:02;;;;;;;1.27;0.65;;;;;;;;;;5073778;28;20083;-35
2024/01/16 02:45:29;;;;;;;2.08;0.90;;;18.30;61.20;;;;;;5073037;28;20052;-37
2024/01/16 02:47:56;;;;;;;1.73;0.80;;;;;;;;;;5056153;28;20052;-35
2024/01/16 02:50:23;;;;;;;1.30;0.80;;;19.10;61.60;;;;;;5073485;28;20048;-37
2024/01/16 02:52:49;;;;;;;2.50;0.80;;;19.20;44.60;;;;;;5073218;28;20041;-35
2024/01/16 02:55:16;;;;;;;2.75;0.70;;;19.10;61.50;;;;;;5071656;28;20429;-37
2024/01/16 02:57:44;;;;;;;3.10;1.00;;;19.70;61.80;;;;;;5073501;28;20052;-38
2024/01/16 03:00:13;;;;;;;1.13;0.82;;;20.40;62.20;;;;;;5073404;28;20128;-30
2024/01/16 03:02:40;;;;;;;2.72;0.82;;;19.70;60.10;;;;;;5073009;28;20044;-29
2024/01/16 03:05:07;;;;;;;1.58;0.60;;;18.60;61.20;;;;;;5073214;28;20053;-28
2024/01/16 03:07:34;;;;;;;1.75;0.77;;;18.60;49.70;;;;;;5073041;28;20048;-29
2024/01/16 03:10:01;;;;;;;1.42;0.98;;;19.00;61.20;;;;;;5072917;28;20044;-35
2024/01/16 03:12:28;;;;;;;1.42;0.70;;;;;;;;;;5055149;28;20060;-34
2024/01/16 03:14:56;;;;;;;0.80;0.55;;;19.20;40.30;;;;;;5052932;28;20067;-39
2024/01/16 03:17:23;;;;;;;2.08;0.90;;;19.90;61.30;;;;;;5052711;28;20493;-34
2024/01/16 03:19:50;;;;;;;1.40;0.77;;;;;;;;;;5053278;28;20106;-36
2024/01/16 03:22:18;;;;;;;0.50;0.50;;;19.40;60.90;;;;;;5052382;28;20774;-37
2024/01/16 03:24:45;;;;;;;1.70;0.80;;;19.40;53.50;;;;;;5052024;28;20051;-35
2024/01/16 03:27:11;;;;;;;0.80;0.60;;;20.30;61.40;;;;;;5057040;28;20559;-35
2024/01/16 03:29:39;;;;;;;2.30;1.08;;;;;;;;;;5072893;28;20098;-33
2024/01/16 03:32:08;;;;;;;2.08;0.80;;;19.90;57.70;;;;;;5073103;28;20121;-28
2024/01/16 03:34:35;;;;;;;1.13;0.70;;;;;;;;;;5072525;28;20463;-32
2024/01/16 03:37:01;;;;;;;1.10;0.90;;;20.30;61.70;;;;;;5072377;28;20783;-35
2024/01/16 03:39:29;;;;;;;1.02;0.80;;;;;;;;;;5072644;28;20048;-36
2024/01/16 03:41:55;;;;;;;3.13;0.90;;;19.40;60.80;;;;;;5072748;28;20084;-36
2024/01/16 03:44:23;;;;;;;0.77;0.70;;;;;;;;;;5065171;28;20555;-35
2024/01/16 03:46:49;;;;;;;1.13;0.80;;;19.10;59.30;;;;;;5072769;28;20082;-35
2024/01/16 03:49:17;;;;;;;3.67;0.93;;;19.60;60.90;;;;;;5072202;28;20494;-34
2024/01/16 03:51:46;;;;;;;1.30;0.70;;;20.00;55.60;;;;;;5072612;28;20053;-37
2024/01/16 03:54:13;;;;;;;3.25;0.88;;;20.30;61.30;;;;;;5072422;28;20048;-37
2024/01/16 03:56:40;;;;;;;1.10;0.80;;;;;;;;;;5072172;28;20105;-36
2024/01/16 03:59:07;;;;;;;2.00;0.65;;;20.00;61.10;;;;;;5072338;28;20505;-29
2024/01/16 04:01:36;;;;;;;0.82;0.63;;;19.70;53.70;;;;;;5057640;28;20052;-29
2024/01/16 04:04:06;;;;;;;1.48;0.90;;;19.60;60.80;;;;;;5052515;28;20056;-29
2024/01/16 04:06:34;;;;;;;1.55;0.70;;;18.90;60.40;;;;;;5052056;28;20049;-36
2024/01/16 04:09:01;;;;;;;2.35;0.80;;;18.60;60.20;;;;;;5052526;28;20087;-38
2024/01/16 04:11:28;;;;;;;2.60;0.80;;;;;;;;;;5052363;28;20103;-37
2024/01/16 04:13:54;;;;;;;1.08;0.68;;;19.70;61.20;;;;;;5052382;28;20045;-36
2024/01/16 04:16:21;;;;;;;1.00;0.70;;;20.60;61.60;;;;;;5051896;28;20044;-35
2024/01/16 04:18:48;;;;;;;1.52;0.77;;;20.20;44.40;;;;;;5052198;28;20049;-31
2024/01/16 04:21:15;;;;;;;1.38;0.80;;;20.10;61.00;;;;;;5052358;28;20048;-35
2024/01/16 04:23:44;;;;;;;1.63;0.90;;;19.80;40.20;;;;;;5052022;28;20128;-33
2024/01/16 04:26:10;;;;;;;1.15;0.80;;;20.00;50.20;;;;;;5051835;28;20080;-29
2024/01/16 04:28:37;;;;;;;1.45;0.90;;;19.70;61.10;;;;;;5051781;28;20052;-29
2024/01/16 04:31:05;;;;;;;0.90;0.60;;;;;;;;;;5051732;28;20136;-31
2024/01/16 04:33:31;;;;;;;1.83;0.88;;;20.00;45.20;;;;;;5060584;28;20513;-38
2024/01/16 04:35:58;;;;;;;1.65;0.80;;;;;;;;;;5071064;28;20052;-33
2024/01/16 04:38:25;;;;;;;3.42;1.05;;;19.30;60.50;;;;;;5072117;28;20049;-29
2024/01/16 04:40:54;;;;;;;2.13;0.93;;;19.70;40.10;;;;;;5071549;28;20044;-33
2024/01/16 04:43:21;;;;;;;1.52;0.73;;;;;;;;;;5062921;28;20494;-33
2024/01/16 04:45:48;;;;;;;1.23;0.70;;;19.20;58.70;;;;;;5051499;28;20111;-29
2024/01/16 04:48:14;;;;;;;1.25;0.70;;;19.60;58.80;;;;;;5051816;28;20655;-29
2024/01/16 04:50:41;;;;;;;1.00;0.60;;;19.30;50.10;;;;;;5051869;28;20053;-29
2024/01/16 04:53:08;;;;;;;2.10;0.85;;;20.10;58.60;;;;;;5051945;28;20052;-29
2024/01/16 04:55:35;;;;;;;1.25;0.75;;;19.20;58.40;;;;;;5051706;28;20053;-29
2024/01/16 04:58:03;;;;;;;1.60;0.93;;;19.60;53.30;;;;;;5055348;28;20040;-38
2024/01/16 05:00:30;;;;;;;1.27;0.80;;;19.70;58.60;;;;;;5071917;28;20079;-37
2024/01/16 05:02:57;;;;;;;1.45;0.55;;;;;;;;;;5071615;28;20458;-33
2024/01/16 05:05:24;;;;;;;1.08;0.80;;;20.10;58.30;;;;;;5071489;28;20098;-35
2024/01/16 05:07:51;;;;;;;1.58;0.70;;;20.10;58.90;;;;;;5071371;28;20494;-28
2024/01/16 05:10:18;;;;;;;1.42;0.80;;;;;;;;;;5071564;28;20106;-33
2024/01/16 05:12:45;;;;;;;1.83;0.75;;;19.40;58.40;;;;;;5071289;28;20581;-34
2024/01/16 05:15:13;;;;;;;1.02;0.60;;;19.70;40.00;;;;;;5058935;28;20090;-32
2024/01/16 05:17:40;;;;;;;1.15;0.80;;;;;;;;;;5051453;28;20098;-31
2024/01/16 05:20:08;;;;;;;1.75;0.70;;;19.50;58.10;;;;;;5051428;28;20061;-29
2024/01/16 05:22:35;;;;;;;1.52;0.75;;;19.40;58.30;;;;;;5051531;28;20506;-28
2024/01/16 05:25:02;;;;;;;2.00;0.60;;;;;;;;;;5050985;28;20452;-33
2024/01/16 05:27:29;;;;;;;1.20;0.70;;;;;;;;;;5051313;28;20045;-29
2024/01/16 05:29:56;;;;;;;0.47;0.45;;;;;;;;;;5051486;28;20049;-32
2024/01/16 05:32:24;;;;;;;1.45;0.82;;;20.80;58.70;;;;;;5052496;28;20049;-34
2024/01/16 05:34:51;;;;;;;1.38;0.80;;;19.00;57.70;;;;;;5050979;28;20076;-38
2024/01/16 05:37:18;;;;;;;1.23;0.70;;;;;;;;;;5062704;28;20060;-32
2024/01/16 05:39:45;;;;;;;0.88;0.70;;;20.20;52.30;;;;;;5071315;28;20048;-36
2024/01/16 05:42:12;;;;;;;1.40;0.80;;;18.90;57.90;;;;;;5071021;28;20052;-37
2024/01/16 05:44:39;;;;;;;3.60;0.77;;;19.20;57.70;;;;;;5071247;28;20044;-37
2024/01/16 05:47:06;;;;;;;1.27;0.60;;;20.10;59.20;;;;;;5067062;28;20540;-37
2024/01/16 05:49:34;;;;;;;2.13;0.80;;;19.80;49.10;;;;;;5063781;28;20566;-34
2024/01/16 05:52:01;;;;;;;1.35;0.70;;;19.90;41.90;;;;;;5074779;28;20105;-31
2024/01/16 05:54:28;;;;;;;1.27;0.70;;;18.80;57.80;;;;;;5074538;28;20473;-35
2024/01/16 05:56:55;;;;;;;2.13;0.93;;;18.80;47.20;;;;;;5074810;28;20053;-29
2024/01/16 05:59:22;;;;;;;1.23;0.77;;;20.00;58.50;;;;;;5074375;28;20052;-34
2024/01/16 06:01:49;;;;;;;1.05;0.70;;;19.80;58.40;;;;;;5074877;28;20056;-36
2024/01/16 06:04:16;;;;;;;1.55;0.90;;;19.80;55.30;;;;;;5073049;28;20049;-37
2024/01/16 06:06:46;;;;;;;1.17;0.70;;;19.90;40.00;;;;;;5074174;28;20556;-35
2024/01/16 06:09:13;;;;;;;1.75;1.00;;;;;;;;;;5074703;28;20059;-34
2024/01/16 06:11:40;;;;;;;1.67;0.70;;;20.00;58.40;;;;;;5074507;28;20103;-36
2024/01/16 06:14:07;;;;;;;1.20;0.70;;;;;;;;;;5074298;28;20106;-33
2024/01/16 06:16:34;;;;;;;1.40;0.80;;;19.10;43.10;;;;;;5074177;28;20106;-38
2024/01/16 06:19:01;;;;;;;1.00;0.73;;;18.90;57.90;;;;;;5074423;28;20592;-34
2024/01/16 06:21:28;;;;;;;1.17;0.68;;;19.70;51.40;;;;;;5065297;28;20057;-33
2024/01/16 06:23:56;;;;;;;1.20;0.63;;;18.90;57.80;;;;;;5054355;28;20044;-28
2024/01/16 06:26:23;;;;;;;1.83;0.90;;;19.80;58.40;;;;;;5054011;28;20449;-38
2024/01/16 06:28:50;;;;;;;3.00;0.80;;;;;;;;;;5054140;28;20056;-32
2024/01/16 06:31:17;;;;;;;1.73;0.73;;;19.70;58.20;;;;;;5054024;28;20053;-38
2024/01/16 06:33:44;;;;;;;1.60;0.70;;;;;;;;;;5063235;28;20040;-33
2024/01/16 06:36:11;;;;;;;1.23;0.73;;;20.00;58.00;;;;;;5072478;28;22992;-28
2024/01/16 06:38:39;;;;;;;1.45;0.90;;;19.70;39.80;;;;;;5069971;28;20072;-33
2024/01/16 06:41:07;;;;;;;1.55;0.88;;;19.70;39.80;;;;;;5073721;28;20417;-33
2024/01/16 06:43:34;;;;;;;2.22;0.90;;;19.90;40.80;;;;;;5073598;28;20052;-35
2024/01/16 06:46:01;;;;;;;1.75;0.70;;;19.60;57.70;;;;;;5073502;28;20498;-28
2024/01/16 06:48:28;;;;;;;1.60;0.98;;;18.60;55.10;;;;;;5073520;28;20064;-28
2024/01/16 06:50:55;;;;;;;1.77;0.77;;;;;;;;;;5066773;28;20049;-34
2024/01/16 06:53:22;;;;;;;3.45;0.80;;;19.80;58.20;;;;;;5064470;28;20102;-38
2024/01/16 06:55:49;;;;;;;2.60;0.90;;;;;;;;;;5073378;28;20109;-32
2024/01/16 06:58:17;;;;;;;1.75;0.80;;;19.90;57.90;;;;;;5073656;28;20086;-36
2024/01/16 07:00:45;;;;;;;1.98;1.02;;;19.40;57.50;;;;;;5073487;28;20147;-35
2024/01/16 07:03:12;;;;;;;4.40;0.90;;;19.10;57.40;;;;;;5062245;28;20040;-28
2024/01/16 07:05:40;;;;;;;2.45;0.70;;;19.90;50.70;;;;;;5053134;28;20041;-35
2024/01/16 07:08:07;;;;;;;3.50;0.90;;;19.70;42.60;;;;;;5053521;28;20049;-35
2024/01/16 07:10:35;;;;;;;0.65;0.60;;;19.90;57.90;;;;;;5053203;28;20049;-39
2024/01/16 07:13:02;;;;;;;0.93;0.70;;;19.80;58.10;;;;;;5053362;28;20087;-28
2024/01/16 07:15:30;;;;;;;1.60;0.90;;;19.50;57.80;;;;;;5056223;28;20090;-28
2024/01/16 07:17:57;;;;;;;2.33;0.80;;;19.50;57.50;;;;;;5063584;28;20106;-37
2024/01/16 07:20:24;;;;;;;1.02;0.70;;;19.40;52.20;;;;;;5053042;28;20102;-34
2024/01/16 07:22:51;;;;;;;1.85;0.82;;;;;;;;;;5053387;28;20187;-37
2024/01/16 07:25:18;;;;;;;1.30;0.85;;;;;;;;;;5052852;28;20071;-29
2024/01/16 07:27:48;;;;;;;1.17;0.70;;;;;;;;;;5052747;28;20102;-33
2024/01/16 07:30:15;;;;;;;1.10;0.65;;;19.90;57.00;;;;;;5064486;28;20152;-35
2024/01/16 07:32:43;;;;;;;1.45;0.93;;;19.70;54.50;;;;;;5072126;28;20093;-35
2024/01/16 07:35:10;;;;;;;1.52;0.82;;;18.70;55.70;;;;;;5068010;28;20086;-37
2024/01/16 07:37:37;;;;;;;1.75;0.75;;;19.90;58.10;;;;;;5055983;28;20566;-35
2024/01/16 07:40:05;;;;;;;0.88;0.70;;;;;;;;;;5068675;28;20062;-31
2024/01/16 07:42:34;;;;;;;2.85;0.73;;;19.60;45.80;;;;;;5066315;28;20056;-29
2024/01/16 07:45:00;;;;;;;2.13;0.80;;;19.50;56.60;;;;;;5053192;28;20045;-34
2024/01/16 07:47:27;;;;;;;1.23;0.73;;;19.60;57.60;;;;;;5053708;28;20538;-38
2024/01/16 07:49:55;;;;;;;2.47;0.80;;;19.80;39.50;;;;;;5066616;28;20094;-32
2024/01/16 07:52:22;;;;;;;1.48;1.17;;;;;;;;;;5063443;28;20076;-33
2024/01/16 07:54:49;;;;;;;1.70;0.80;;;19.80;57.50;;;;;;5056668;28;20048;-38
2024/01/16 07:57:16;;;;;;;1.27;0.80;;;;;;;;;;5055341;28;20053;-33
2024/01/16 07:59:43;;;;;;;1.38;0.80;;;20.00;57.80;;;;;;5052283;28;20049;-34
2024/01/16 08:02:10;;;;;;;0.85;0.60;;;19.70;57.30;;;;;;5052100;28;20057;-36
2024/01/16 08:04:37;;;;;;;1.75;0.93;;;21.00;45.10;;;;;;5053133;28;20049;-30
2024/01/16 08:07:05;;;;;;;0.80;0.50;;;19.80;57.30;;;;;;5052480;28;20068;-28
2024/01/16 08:09:32;;;;;;;1.45;0.80;;;20.30;57.60;;;;;;5052231;28;20044;-29
2024/01/16 08:12:01;;;;;;;1.25;0.80;;;;;;;;;;5051321;28;20552;-32
2024/01/16 08:14:28;;;;;;;1.55;0.73;;;20.50;58.10;;;;;;5052005;28;20048;-28
2024/01/16 08:16:55;;;;;;;0.95;0.80;;;20.40;54.10;;;;;;5058861;28;20071;-29
2024/01/16 08:19:22;;;;;;;1.50;0.90;;;20.00;54.50;;;;;;5060703;28;20111;-28
2024/01/16 08:21:49;;;;;;;0.95;0.60;;;;;;;;;;5058836;28;20052;-28
2024/01/16 08:24:17;;;;;;;1.30;0.80;;;20.20;57.10;;;;;;5061111;28;20044;-28
2024/01/16 08:26:44;;;;;;;1.20;0.70;;;;;;;;;;5061033;28;20049;-29
2024/01/16 08:29:11;;;;;;;1.55;0.90;;;;;;;;;;5064562;28;20045;-32
2024/01/16 08:31:38;;;;;;;1.83;1.00;;;20.40;40.50;;;;;;5062278;28;20040;-28
2024/01/16 08:34:05;;;;;;;1.42;0.70;;;20.20;57.90;;;;;;5060200;28;20099;-28
2024/01/16 08:36:32;;;;;;;4.30;1.00;;;19.20;56.00;;;;;;5059889;28;20098;-28
2024/01/16 08:38:59;;;;;;;1.35;0.85;;;20.40;48.70;;;;;;5061276;28;20467;-29
2024/01/16 08:41:27;;;;;;;4.88;0.82;;;20.30;39.40;;;;;;5051803;28;20090;-33
2024/01/16 08:43:54;;;;;;;2.20;0.80;;;;;;;;;;5051474;28;20045;-33
2024/01/16 08:46:21;;;;;;;1.52;0.80;;;20.20;57.70;;;;;;5051261;28;20559;-27
2024/01/16 08:48:48;;;;;;;1.63;0.90;;;;;;;;;;5051787;28;20136;-34
2024/01/16 08:51:15;;;;;;;1.10;0.70;;;20.20;57.40;;;;;;5051643;28;20048;-38
2024/01/16 08:53:42;;;;;;;1.65;0.80;;;20.40;57.40;;;;;;5058457;28;20049;-37
2024/01/16 08:56:08;;;;;;;1.92;0.90;;;20.60;53.40;;;;;;5071218;28;20528;-34
2024/01/16 08:58:38;;;;;;;1.90;1.00;;;20.70;57.60;;;;;;5071832;28;20072;-34
2024/01/16 09:01:05;;;;;;;1.50;0.88;;;19.50;49.60;;;;;;5071430;28;20048;-35
2024/01/16 09:03:33;;;;;;;1.23;0.80;;;20.30;48.30;;;;;;5071369;28;20078;-35
2024/01/16 09:06:00;;;;;;;1.20;0.95;;;21.20;57.80;;;;;;5070890;28;20068;-37
2024/01/16 09:08:27;;;;;;;1.23;0.90;;;20.30;49.70;;;;;;5071769;28;20053;-35
2024/01/16 09:10:54;;;;;;;2.33;1.10;;;;;;;;;;5069575;28;20098;-35
2024/01/16 09:13:21;;;;;;;1.35;1.02;;;20.70;55.60;;;;;;5071475;28;20052;-37
2024/01/16 09:15:49;;;;;;;2.22;1.00;;;21.20;58.20;;;;;;5070895;28;20106;-38
2024/01/16 09:18:16;;;;;;;1.40;0.88;;;20.50;57.40;;;;;;5066058;28;20071;-33
2024/01/16 09:20:43;;;;;;;1.73;0.82;;;20.80;48.20;;;;;;5059603;28;20131;-35
2024/01/16 09:23:10;;;;;;;1.50;0.95;;;21.20;57.70;;;;;;5063827;28;20045;-35
2024/01/16 09:25:37;;;;;;;1.05;0.63;;;;;;;;;;5054707;28;20111;-33
2024/01/16 09:28:04;;;;;;;1.55;1.02;;;20.00;56.90;;;;;;5073352;28;20497;-37
2024/01/16 09:30:33;;;;;;;1.20;0.90;;;;;;;;;;5074836;28;20056;-32
2024/01/16 09:33:01;;;;;;;3.42;1.00;;;21.00;53.10;;;;;;5074888;28;20501;-34
2024/01/16 09:35:28;;;;;;;1.65;0.95;;;21.00;55.70;;;;;;5074712;28;20041;-33
2024/01/16 09:37:54;;;;;;;1.08;0.80;;;21.20;57.60;;;;;;5074566;28;20052;-28
2024/01/16 09:40:22;;;;;;;2.17;0.93;;;;;;;;;;5074265;28;20048;-33
2024/01/16 09:42:49;;;;;;;1.20;0.80;;;21.10;57.50;;;;;;5072302;28;20090;-38
2024/01/16 09:45:17;;;;;;;1.40;0.70;;;20.70;39.60;;;;;;5054354;28;20055;-32
2024/01/16 09:47:44;;;;;;;1.17;0.73;;;;;;;;;;5055298;28;20114;-33
2024/01/16 09:50:13;;;;;;;1.67;0.80;;;20.90;57.60;;;;;;5061303;28;20095;-35
2024/01/16 09:52:40;;;;;;;1.00;0.82;;;;;;;;;;5062711;28;20052;-33
2024/01/16 09:55:07;;;;;;;1.17;0.90;;;20.20;57.70;;;;;;5065442;28;20044;-35
2024/01/16 09:57:35;;;;;;;1.88;0.77;;;;;;;;;;5074619;28;20048;-29
2024/01/16 10:00:03;;;;;;;1.15;0.73;;;20.40;57.20;;;;;;5074603;28;20657;-38
2024/01/16 10:02:29;;;;;;;0.88;0.70;;;20.90;57.30;;;;;;5074794;28;20058;-28
2024/01/16 10:04:56;;;;;;;0.82;0.63;;;20.90;42.90;;;;;;5065783;28;20045;-30
2024/01/16 10:07:27;;;;;;;1.13;0.80;;;21.00;57.50;;;;;;5058964;28;20095;-29
2024/01/16 10:09:54;;;;;;;1.63;0.70;;;;;;;;;;5061080;28;20443;-31
2024/01/16 10:12:21;;;;;;;1.70;0.90;;;20.80;57.90;;;;;;5059639;28;20045;-28
2024/01/16 10:14:50;;;;;;;1.65;0.70;;;;;;;;;;5059210;28;20040;-32
2024/01/16 10:17:18;;;;;;;0.95;0.70;;;19.80;56.70;;;;;;5061352;28;20080;-28
2024/01/16 10:19:49;;;;;;;1.48;0.73;;;20.80;39.40;;;;;;5061077;28;20048;-31
2024/01/16 10:22:24;;;;;;;1.40;0.82;;;20.50;57.20;;;;;;5054215;28;20123;-28
2024/01/16 10:24:55;;;;;;;1.35;0.73;;;21.70;40.60;;;;;;5071502;28;20076;-31
2024/01/16 10:27:22;;;;;;;1.15;0.80;;;21.20;57.10;;;;;;5074380;28;20048;-35
2024/01/16 10:29:58;;;;;;;1.80;0.82;;;20.60;49.30;;;;;;5073205;28;20190;-37
2024/01/16 10:32:29;;;;;;;1.45;0.73;;;21.50;50.80;;;;;;5074221;28;20044;-30
2024/01/16 10:35:04;;;;;;;0.82;0.60;;;21.50;57.10;;;;;;5073151;28;20551;-28
2024/01/16 10:37:31;;;;;;;1.58;0.80;;;21.90;57.60;;;;;;5073462;28;20060;-28
2024/01/16 10:39:59;;;;;;;1.10;0.77;;;20.50;49.00;;;;;;5066263;28;20049;-29
2024/01/16 10:42:26;;;;;;;1.73;1.00;;;20.50;50.60;;;;;;5054061;28;20052;-29
2024/01/16 10:44:55;;;;;;;2.55;1.00;;;20.80;54.60;;;;;;5053771;28;20056;-28
2024/01/16 10:47:23;;;;;;;1.35;0.80;;;20.60;57.20;;;;;;5053703;28;20099;-36
2024/01/16 10:49:50;;;;;;;0.98;0.70;;;;;;;;;;5052845;28;20080;-31
2024/01/16 10:52:17;;;;;;;2.83;0.80;;;21.20;57.60;;;;;;5053562;28;20049;-28
2024/01/16 10:54:45;;;;;;;5.65;1.00;;;;;;;;;;5061721;28;20053;-32
2024/01/16 10:57:14;;;;;;;3.63;1.00;;;21.00;39.30;;;;;;5057111;28;20102;-33
2024/01/16 10:59:43;;;;;;;4.15;0.90;;;20.20;56.50;;;;;;5053701;28;20063;-28
2024/01/16 11:02:10;;;;;;;7.90;1.08;;;21.00;42.40;;;;;;5053496;28;20045;-31
2024/01/16 11:04:38;;;;;;;7.05;1.60;;;;;;;;;;5053492;28;20053;-35
2024/01/16 11:07:05;;;;;;;2.33;0.80;;;21.60;57.90;;;;;;5063628;28;20489;-36
2024/01/16 11:09:32;;;;;;;4.38;0.88;;;21.10;39.40;;;;;;5073131;28;20106;-31
2024/01/16 11:11:59;;;;;;;3.97;1.02;;;21.20;57.80;;;;;;5073615;28;20053;-38
2024/01/16 11:14:28;;;;;;;1.25;0.93;;;21.00;39.40;;;;;;5075104;28;20058;-32
2024/01/16 11:16:54;;;;;;;2.70;1.08;;;21.30;42.00;;;;;;5072716;28;20055;-35
2024/01/16 11:19:21;;;;;;;2.17;1.05;;;21.30;48.50;;;;;;5073014;28;20060;-38
2024/01/16 11:21:49;;;;;;;2.67;1.10;;;21.80;57.10;;;;;;5067885;28;20049;-35
2024/01/16 11:24:15;;;;;;;2.35;1.17;;;21.10;57.10;;;;;;5063284;28;20053;-28
2024/01/16 11:26:43;;;;;;;4.32;0.95;;;;;;;;;;5061876;28;20041;-32
2024/01/16 11:29:38;;;;;;;2.58;0.90;;;21.10;57.50;;;;;;5053055;28;20592;-28
2024/01/16 11:32:05;;;;;;;1.48;0.93;;;;;;;;;;5056654;28;20098;-32
2024/01/16 11:34:55;;;;;;;1.92;0.90;;;19.90;56.20;;;;;;5055222;28;20124;-28
2024/01/16 11:37:27;;;;;;;2.83;1.02;;;21.10;39.60;;;;;;5064855;28;20106;-35
2024/01/16 11:40:20;;;;;;;3.47;1.20;;;21.20;44.40;;;;;;5064056;28;20429;-28
2024/01/16 11:42:48;;;;;;;3.17;1.25;;;21.10;39.60;;;;;;5053730;28;20420;-31
2024/01/16 11:45:51;;;;;;;2.70;0.95;;;21.20;39.60;;;;;;5061422;28;20081;-31
2024/01/16 11:48:18;;;;;;;2.42;1.00;;;21.10;39.60;;;;;;5063442;28;20115;-34
2024/01/16 11:50:45;;;;;;;1.90;0.98;;;;;;;;;;5062215;28;20087;-32
2024/01/16 11:53:27;;;;;;;2.45;1.02;;;21.00;56.80;;;;;;5060559;28;20056;-34
2024/01/16 11:55:59;;;;;;;1.65;0.90;;;21.10;39.60;;;;;;5051679;28;20053;-32
2024/01/16 11:58:35;;;;;;;2.70;1.20;;;20.70;42.10;;;;;;5052088;28;20048;-32
2024/01/16 12:01:04;;;;;;;1.73;0.88;;;21.20;39.60;;;;;;5051816;28;20140;-35
2024/01/16 12:03:31;;;;;;;2.33;1.20;;;21.40;56.90;;;;;;5062104;28;20048;-35
2024/01/16 12:05:57;;;;;;;1.88;1.13;;;21.30;57.60;;;;;;5057948;28;20106;-28
2024/01/16 12:08:24;;;;;;;2.30;1.10;;;21.40;41.80;;;;;;5059921;28;20060;-31
2024/01/16 12:10:51;;;;;;;1.90;1.00;;;20.70;57.30;;;;;;5056244;28;20771;-28
2024/01/16 12:13:18;;;;;;;1.63;0.90;;;21.60;41.50;;;;;;5070565;28;20055;-30
2024/01/16 12:15:46;;;;;;;2.05;0.90;;;21.20;57.40;;;;;;5071286;28;20048;-28
2024/01/16 12:18:19;;;;;;;1.40;0.98;;;21.60;53.50;;;;;;5071958;28;20516;-36
2024/01/16 12:20:45;;;;;;;1.00;0.90;;;21.40;57.20;;;;;;5071849;28;20053;-28
2024/01/16 12:23:13;;;;;;;1.90;0.90;;;;;;;;;;5057144;28;20056;-33
2024/01/16 12:25:39;;;;;;;1.40;0.88;;;21.90;57.80;;;;;;5051625;28;20049;-29
2024/01/16 12:28:07;;;;;;;1.80;1.00;;;21.20;39.30;;;;;;5051975;28;20045;-34
2024/01/16 12:30:34;;;;;;;1.15;0.80;;;21.40;56.70;;;;;;5052152;28;20421;-28
2024/01/16 12:33:06;;;;;;;1.70;0.98;;;22.10;55.80;;;;;;5051815;28;20076;-28
2024/01/16 12:35:35;;;;;;;2.08;0.93;;;20.30;56.40;;;;;;5051766;28;20041;-29
2024/01/16 12:38:02;;;;;;;2.38;0.90;;;21.00;56.50;;;;;;5069618;28;20055;-28
2024/01/16 12:40:29;;;;;;;2.05;1.00;;;21.40;44.50;;;;;;5053418;28;20092;-30
2024/01/16 12:42:56;;;;;;;2.50;0.95;;;21.10;56.50;;;;;;5051765;28;20053;-28
2024/01/16 12:45:23;;;;;;;1.48;0.73;;;;;;;;;;5051456;28;20053;-35
2024/01/16 12:47:53;;;;;;;2.20;0.93;;;21.00;57.20;;;;;;5051628;28;20507;-36
2024/01/16 12:50:22;;;;;;;1.67;0.93;;;21.50;56.60;;;;;;5051907;28;20048;-36
2024/01/16 12:52:51;;;;;;;1.73;1.00;;;20.80;57.10;;;;;;5051553;28;20053;-35
2024/01/16 12:55:19;;;;;;;1.92;1.00;;;20.80;53.90;;;;;;5054744;28;20052;-28
2024/01/16 12:57:46;;;;;;;1.52;0.80;;;20.20;44.40;;;;;;5074608;28;20059;-37
2024/01/16 13:00:23;;;;;;;1.13;0.90;;;21.10;56.40;;;;;;5076066;28;20052;-38
2024/01/16 13:02:51;;;;;;;1.00;0.80;;;21.60;45.70;;;;;;5075684;28;20056;-29
2024/01/16 13:05:18;;;;;;;1.13;0.80;;;21.50;56.80;;;;;;5075499;28;20497;-38
2024/01/16 13:07:45;;;;;;;1.15;0.80;;;21.30;57.60;;;;;;5075425;28;20072;-29
2024/01/16 13:10:15;;;;;;;4.30;1.20;;;20.70;54.30;;;;;;5075787;28;20048;-29
2024/01/16 13:12:42;;;;;;;1.50;1.00;;;20.70;56.30;;;;;;5074949;28;20565;-35